sensor_id;sensor_type;location;lat;lon;timestamp;P1;durP1;ratioP1;P2;durP2;ratioP2
36303;SDS011;22335;49.800;8.596;2024-01-16T00:04:50;24.52;;;22.77;;
36303;SDS011;22335;49.800;8.596;2024-01-16T00:11:34;23.25;;;21.65;;
36303;SDS011;22335;49.800;8.596;2024-01-16T00:18:24;24.30;;;22.52;;
36303;SDS011;22335;49.800;8.596;2024-01-16T00:25:08;25.42;;;23.73;;
36303;SDS011;22335;49.800;8.596;2024-01-16T00:31:53;25.58;;;23.60;;
36303;SDS011;22335;49.800;8.596;2024-01-16T00:38:37;25.17;;;23.45;;
36303;SDS011;22335;49.800;8.596;2024-01-16T00:45:21;25.08;;;23.30;;
36303;SDS011;22335;49.800;8.596;2024-01-16T00:52:05;25.38;;;23.48;;
36303;SDS011;22335;49.800;8.596;2024-01-16T00:58:50;25.63;;;23.73;;
36303;SDS011;22335;49.800;8.596;2024-01-16T01:05:35;25.25;;;23.58;;
36303;SDS011;22335;49.800;8.596;2024-01-16T01:12:19;26.83;;;24.67;;
36303;SDS011;22335;49.800;8.596;2024-01-16T01:19:05;26.02;;;23.90;;
36303;SDS011;22335;49.800;8.596;2024-01-16T01:25:49;25.77;;;23.98;;
36303;SDS011;22335;49.800;8.596;2024-01-16T01:32:34;25.75;;;23.88;;
36303;SDS011;22335;49.800;8.596;2024-01-16T01:39:18;26.17;;;24.20;;
36303;SDS011;22335;49.800;8.596;2024-01-16T01:46:09;26.00;;;24.10;;
36303;SDS011;22335;49.800;8.596;2024-01-16T01:52:55;26.10;;;24.42;;
36303;SDS011;22335;49.800;8.596;2024-01-16T01:59:40;26.30;;;24.40;;
36303;SDS011;22335;49.800;8.596;2024-01-16T02:06:24;25.75;;;24.02;;
36303;SDS011;22335;49.800;8.596;2024-01-16T02:13:08;26.40;;;24.30;;
36303;SDS011;22335;49.800;8.596;2024-01-16T02:19:52;26.15;;;24.23;;
36303;SDS011;22335;49.800;8.596;2024-01-16T02:26:37;26.77;;;24.88;;
36303;SDS011;22335;49.800;8.596;2024-01-16T02:33:21;27.60;;;25.15;;
36303;SDS011;22335;49.800;8.596;2024-01-16T02:40:05;27.27;;;25.20;;
36303;SDS011;22335;49.800;8.596;2024-01-16T02:46:52;26.92;;;25.00;;
36303;SDS011;22335;49.800;8.596;2024-01-16T02:53:36;28.00;;;25.85;;
36303;SDS011;22335;49.800;8.596;2024-01-16T03:00:19;27.63;;;25.60;;
36303;SDS011;22335;49.800;8.596;2024-01-16T03:07:05;28.05;;;26.10;;
36303;SDS011;22335;49.800;8.596;2024-01-16T03:13:48;28.30;;;26.25;;
36303;SDS011;22335;49.800;8.596;2024-01-16T03:20:33;28.50;;;26.20;;
36303;SDS011;22335;49.800;8.596;2024-01-16T03:27:18;27.42;;;25.23;;
36303;SDS011;22335;49.800;8.596;2024-01-16T03:34:02;27.17;;;25.17;;
36303;SDS011;22335;49.800;8.596;2024-01-16T03:40:45;28.17;;;26.00;;
36303;SDS011;22335;49.800;8.596;2024-01-16T04:02:32;27.17;;;25.13;;
36303;SDS011;22335;49.800;8.596;2024-01-16T04:09:15;28.00;;;25.90;;
36303;SDS011;22335;49.800;8.596;2024-01-16T04:15:59;27.38;;;25.27;;
36303;SDS011;22335;49.800;8.596;2024-01-16T04:22:44;27.77;;;25.48;;
36303;SDS011;22335;49.800;8.596;2024-01-16T04:29:28;27.73;;;25.63;;
36303;SDS011;22335;49.800;8.596;2024-01-16T04:36:12;27.20;;;24.98;;
36303;SDS011;22335;49.800;8.596;2024-01-16T04:42:57;26.98;;;24.95;;
36303;SDS011;22335;49.800;8.596;2024-01-16T04:49:41;28.35;;;26.08;;
36303;SDS011;22335;49.800;8.596;2024-01-16T04:56:25;28.40;;;26.15;;
36303;SDS011;22335;49.800;8.596;2024-01-16T05:03:09;26.88;;;24.85;;
36303;SDS011;22335;49.800;8.596;2024-01-16T05:09:53;28.42;;;26.08;;
36303;SDS011;22335;49.800;8.596;2024-01-16T05:16:36;27.88;;;25.55;;
36303;SDS011;22335;49.800;8.596;2024-01-16T05:23:21;27.88;;;25.67;;
36303;SDS011;22335;49.800;8.596;2024-01-16T05:30:05;27.83;;;25.52;;
36303;SDS011;22335;49.800;8.596;2024-01-16T05:36:49;27.73;;;25.67;;
36303;SDS011;22335;49.800;8.596;2024-01-16T05:43:34;29.88;;;27.23;;
36303;SDS011;22335;49.800;8.596;2024-01-16T05:50:18;28.88;;;26.45;;
36303;SDS011;22335;49.800;8.596;2024-01-16T05:57:01;29.38;;;27.10;;
36303;SDS011;22335;49.800;8.596;2024-01-16T06:03:46;28.58;;;26.42;;
36303;SDS011;22335;49.800;8.596;2024-01-16T06:10:31;28.23;;;25.95;;
36303;SDS011;22335;49.800;8.596;2024-01-16T06:17:14;29.30;;;26.95;;
36303;SDS011;22335;49.800;8.596;2024-01-16T06:23:59;29.23;;;26.92;;
36303;SDS011;22335;49.800;8.596;2024-01-16T06:30:42;29.30;;;26.98;;
36303;SDS011;22335;49.800;8.596;2024-01-16T06:37:26;28.33;;;26.08;;
36303;SDS011;22335;49.800;8.596;2024-01-16T06:44:11;29.60;;;27.05;;
36303;SDS011;22335;49.800;8.596;2024-01-16T06:50:55;29.65;;;26.98;;
36303;SDS011;22335;49.800;8.596;2024-01-16T06:57:39;29.10;;;27.00;;
36303;SDS011;22335;49.800;8.596;2024-01-16T07:04:23;29.60;;;27.10;;
36303;SDS011;22335;49.800;8.596;2024-01-16T07:11:07;29.10;;;26.60;;
36303;SDS011;22335;49.800;8.596;2024-01-16T07:17:55;29.20;;;26.77;;
36303;SDS011;22335;49.800;8.596;2024-01-16T07:24:40;29.30;;;27.08;;
36303;SDS011;22335;49.800;8.596;2024-01-16T07:31:23;29.67;;;27.27;;
36303;SDS011;22335;49.800;8.596;2024-01-16T07:38:07;30.17;;;27.83;;
36303;SDS011;22335;49.800;8.596;2024-01-16T07:44:52;28.35;;;26.10;;
36303;SDS011;22335;49.800;8.596;2024-01-16T07:51:36;28.98;;;26.67;;
36303;SDS011;22335;49.800;8.596;2024-01-16T07:58:20;28.35;;;26.25;;
36303;SDS011;22335;49.800;8.596;2024-01-16T08:05:06;29.52;;;27.15;;
36303;SDS011;22335;49.800;8.596;2024-01-16T08:11:49;29.20;;;26.75;;
36303;SDS011;22335;49.800;8.596;2024-01-16T08:18:34;29.83;;;27.23;;
36303;SDS011;22335;49.800;8.596;2024-01-16T08:25:19;29.52;;;27.13;;
36303;SDS011;22335;49.800;8.596;2024-01-16T08:32:03;29.30;;;26.80;;
36303;SDS011;22335;49.800;8.596;2024-01-16T08:38:47;28.85;;;26.60;;
36303;SDS011;22335;49.800;8.596;2024-01-16T08:45:32;29.25;;;26.67;;
36303;SDS011;22335;49.800;8.596;2024-01-16T08:52:15;28.73;;;26.40;;
36303;SDS011;22335;49.800;8.596;2024-01-16T08:58:59;28.77;;;26.52;;
36303;SDS011;22335;49.800;8.596;2024-01-16T09:05:44;29.95;;;27.25;;
36303;SDS011;22335;49.800;8.596;2024-01-16T09:12:28;28.88;;;26.65;;
36303;SDS011;22335;49.800;8.596;2024-01-16T09:19:11;29.55;;;26.80;;
36303;SDS011;22335;49.800;8.596;2024-01-16T09:25:56;29.48;;;26.55;;
36303;SDS011;22335;49.800;8.596;2024-01-16T09:32:40;29.70;;;27.17;;
36303;SDS011;22335;49.800;8.596;2024-01-16T09:39:24;28.75;;;26.35;;
36303;SDS011;22335;49.800;8.596;2024-01-16T09:46:08;28.70;;;26.13;;
36303;SDS011;22335;49.800;8.596;2024-01-16T09:52:54;29.35;;;26.88;;
36303;SDS011;22335;49.800;8.596;2024-01-16T09:59:38;29.80;;;26.90;;
36303;SDS011;22335;49.800;8.596;2024-01-16T10:06:24;29.38;;;26.77;;
36303;SDS011;22335;49.800;8.596;2024-01-16T10:13:10;29.67;;;27.05;;
36303;SDS011;22335;49.800;8.596;2024-01-16T10:19:55;29.55;;;27.00;;
36303;SDS011;22335;49.800;8.596;2024-01-16T10:26:42;29.05;;;26.48;;
36303;SDS011;22335;49.800;8.596;2024-01-16T10:33:25;29.42;;;26.73;;
36303;SDS011;22335;49.800;8.596;2024-01-16T10:40:10;30.02;;;27.27;;
36303;SDS011;22335;49.800;8.596;2024-01-16T10:47:10;27.92;;;25.52;;
36303;SDS011;22335;49.800;8.596;2024-01-16T10:53:55;28.80;;;26.15;;
36303;SDS011;22335;49.800;8.596;2024-01-16T11:00:42;28.73;;;26.27;;
36303;SDS011;22335;49.800;8.596;2024-01-16T11:07:31;28.80;;;26.05;;
36303;SDS011;22335;49.800;8.596;2024-01-16T11:14:17;28.92;;;25.95;;
36303;SDS011;22335;49.800;8.596;2024-01-16T11:21:02;28.23;;;25.83;;
36303;SDS011;22335;49.800;8.596;2024-01-16T11:27:52;28.33;;;25.73;;
36303;SDS011;22335;49.800;8.596;2024-01-16T11:34:54;28.08;;;25.48;;
36303;SDS011;22335;49.800;8.596;2024-01-16T11:41:47;28.75;;;26.00;;
36303;SDS011;22335;49.800;8.596;2024-01-16T11:48:35;28.27;;;25.67;;
36303;SDS011;22335;49.800;8.596;2024-01-16T11:55:27;28.45;;;26.00;;
36303;SDS011;22335;49.800;8.596;2024-01-16T12:02:14;28.48;;;25.88;;
36303;SDS011;22335;49.800;8.596;2024-01-16T12:09:12;28.40;;;26.00;;
36303;SDS011;22335;49.800;8.596;2024-01-16T12:16:00;27.45;;;25.02;;
36303;SDS011;22335;49.800;8.596;2024-01-16T12:22:45;28.42;;;25.92;;
36303;SDS011;22335;49.800;8.596;2024-01-16T12:29:31;28.02;;;25.65;;
36303;SDS011;22335;49.800;8.596;2024-01-16T12:36:15;27.80;;;25.25;;
36303;SDS011;22335;49.800;8.596;2024-01-16T12:42:59;27.98;;;25.65;;
36303;SDS011;22335;49.800;8.596;2024-01-16T12:49:44;28.10;;;25.45;;
36303;SDS011;22335;49.800;8.596;2024-01-16T12:56:28;27.10;;;24.60;;
36303;SDS011;22335;49.800;8.596;2024-01-16T13:03:15;27.38;;;24.77;;
36303;SDS011;22335;49.800;8.596;2024-01-16T13:10:07;27.98;;;25.67;;
36303;SDS011;22335;49.800;8.596;2024-01-16T13:16:53;26.73;;;24.38;;
36303;SDS011;22335;49.800;8.596;2024-01-16T13:23:37;27.30;;;25.10;;
36303;SDS011;22335;49.800;8.596;2024-01-16T13:30:22;27.52;;;25.00;;
36303;SDS011;22335;49.800;8.596;2024-01-16T13:37:08;27.50;;;25.30;;
36303;SDS011;22335;49.800;8.596;2024-01-16T13:43:54;27.55;;;25.05;;
36303;SDS011;22335;49.800;8.596;2024-01-16T13:50:39;26.67;;;24.33;;
36303;SDS011;22335;49.800;8.596;2024-01-16T13:57:22;27.35;;;25.13;;
36303;SDS011;22335;49.800;8.596;2024-01-16T14:04:06;27.10;;;24.70;;
36303;SDS011;22335;49.800;8.596;2024-01-16T14:10:51;27.55;;;25.25;;
36303;SDS011;22335;49.800;8.596;2024-01-16T14:17:35;26.55;;;24.25;;
36303;SDS011;22335;49.800;8.596;2024-01-16T14:24:18;26.60;;;24.30;;
36303;SDS011;22335;49.800;8.596;2024-01-16T14:31:04;26.48;;;24.27;;
36303;SDS011;22335;49.800;8.596;2024-01-16T14:37:48;25.10;;;23.23;;
36303;SDS011;22335;49.800;8.596;2024-01-16T14:44:32;26.25;;;23.88;;
36303;SDS011;22335;49.800;8.596;2024-01-16T14:51:17;24.40;;;22.42;;
36303;SDS011;22335;49.800;8.596;2024-01-16T14:58:00;23.55;;;21.55;;
36303;SDS011;22335;49.800;8.596;2024-01-16T15:04:44;24.10;;;22.20;;
36303;SDS011;22335;49.800;8.596;2024-01-16T15:11:29;23.45;;;21.40;;
36303;SDS011;22335;49.800;8.596;2024-01-16T15:18:12;23.40;;;21.50;;
36303;SDS011;22335;49.800;8.596;2024-01-16T15:24:56;22.77;;;20.90;;
36303;SDS011;22335;49.800;8.596;2024-01-16T15:31:40;22.75;;;21.00;;
36303;SDS011;22335;49.800;8.596;2024-01-16T15:38:24;22.83;;;21.20;;
36303;SDS011;22335;49.800;8.596;2024-01-16T15:45:08;24.08;;;22.05;;
36303;SDS011;22335;49.800;8.596;2024-01-16T15:51:54;25.60;;;23.23;;
36303;SDS011;22335;49.800;8.596;2024-01-16T15:58:40;26.25;;;23.95;;
36303;SDS011;22335;49.800;8.596;2024-01-16T16:05:25;25.95;;;23.65;;
36303;SDS011;22335;49.800;8.596;2024-01-16T16:12:10;26.70;;;24.40;;
36303;SDS011;22335;49.800;8.596;2024-01-16T16:18:54;27.52;;;25.00;;
36303;SDS011;22335;49.800;8.596;2024-01-16T16:25:39;26.30;;;24.00;;
36303;SDS011;22335;49.800;8.596;2024-01-16T16:32:29;27.00;;;24.47;;
36303;SDS011;22335;49.800;8.596;2024-01-16T16:39:13;27.33;;;25.00;;
36303;SDS011;22335;49.800;8.596;2024-01-16T16:45:58;26.45;;;24.13;;
36303;SDS011;22335;49.800;8.596;2024-01-16T16:52:42;27.40;;;25.10;;
36303;SDS011;22335;49.800;8.596;2024-01-16T16:59:26;27.08;;;24.65;;
36303;SDS011;22335;49.800;8.596;2024-01-16T17:06:10;27.65;;;25.15;;
36303;SDS011;22335;49.800;8.596;2024-01-16T17:12:56;27.92;;;24.95;;
36303;SDS011;22335;49.800;8.596;2024-01-16T17:19:39;27.48;;;25.27;;
36303;SDS011;22335;49.800;8.596;2024-01-16T17:26:23;27.17;;;24.67;;
36303;SDS011;22335;49.800;8.596;2024-01-16T17:33:09;28.15;;;25.38;;
36303;SDS011;22335;49.800;8.596;2024-01-16T17:39:52;28.45;;;25.90;;
36303;SDS011;22335;49.800;8.596;2024-01-16T17:46:36;28.02;;;25.58;;
36303;SDS011;22335;49.800;8.596;2024-01-16T17:53:25;28.73;;;26.23;;
36303;SDS011;22335;49.800;8.596;2024-01-16T18:00:09;29.05;;;26.38;;
36303;SDS011;22335;49.800;8.596;2024-01-16T18:06:54;30.05;;;27.15;;
36303;SDS011;22335;49.800;8.596;2024-01-16T18:13:38;30.30;;;27.50;;
36303;SDS011;22335;49.800;8.596;2024-01-16T18:20:23;31.15;;;28.23;;
36303;SDS011;22335;49.800;8.596;2024-01-16T18:27:12;31.30;;;28.48;;
36303;SDS011;22335;49.800;8.596;2024-01-16T18:33:57;31.83;;;28.83;;
36303;SDS011;22335;49.800;8.596;2024-01-16T18:40:41;32.58;;;29.20;;
36303;SDS011;22335;49.800;8.596;2024-01-16T18:47:25;31.95;;;29.02;;
36303;SDS011;22335;49.800;8.596;2024-01-16T18:54:09;36.33;;;32.58;;
36303;SDS011;22335;49.800;8.596;2024-01-16T19:00:53;45.63;;;34.03;;
36303;SDS011;22335;49.800;8.596;2024-01-16T19:07:39;36.58;;;32.65;;
36303;SDS011;22335;49.800;8.596;2024-01-16T19:14:25;38.80;;;34.80;;
36303;SDS011;22335;49.800;8.596;2024-01-16T19:21:09;38.60;;;33.97;;
36303;SDS011;22335;49.800;8.596;2024-01-16T19:27:52;37.92;;;34.03;;
36303;SDS011;22335;49.800;8.596;2024-01-16T19:34:37;45.25;;;37.38;;
36303;SDS011;22335;49.800;8.596;2024-01-16T19:41:21;42.13;;;36.22;;
36303;SDS011;22335;49.800;8.596;2024-01-16T19:48:05;37.97;;;34.08;;
36303;SDS011;22335;49.800;8.596;2024-01-16T19:54:55;37.72;;;34.00;;
36303;SDS011;22335;49.800;8.596;2024-01-16T20:01:42;38.58;;;34.47;;
36303;SDS011;22335;49.800;8.596;2024-01-16T20:08:25;39.92;;;35.65;;
36303;SDS011;22335;49.800;8.596;2024-01-16T20:15:12;38.35;;;34.45;;
36303;SDS011;22335;49.800;8.596;2024-01-16T20:21:59;48.38;;;38.35;;
36303;SDS011;22335;49.800;8.596;2024-01-16T20:28:42;60.40;;;40.58;;
36303;SDS011;22335;49.800;8.596;2024-01-16T20:35:28;59.25;;;39.67;;
36303;SDS011;22335;49.800;8.596;2024-01-16T20:42:12;40.65;;;35.75;;
36303;SDS011;22335;49.800;8.596;2024-01-16T20:48:55;43.03;;;35.33;;
36303;SDS011;22335;49.800;8.596;2024-01-16T20:55:40;37.35;;;33.47;;
36303;SDS011;22335;49.800;8.596;2024-01-16T21:02:23;39.10;;;34.85;;
36303;SDS011;22335;49.800;8.596;2024-01-16T21:09:07;35.50;;;32.05;;
36303;SDS011;22335;49.800;8.596;2024-01-16T21:22:43;40.90;;;36.42;;
36303;SDS011;22335;49.800;8.596;2024-01-16T21:29:27;37.50;;;33.58;;
36303;SDS011;22335;49.800;8.596;2024-01-16T21:36:12;66.35;;;49.40;;
36303;SDS011;22335;49.800;8.596;2024-01-16T21:42:56;45.30;;;40.25;;
36303;SDS011;22335;49.800;8.596;2024-01-16T21:49:39;40.38;;;35.65;;
36303;SDS011;22335;49.800;8.596;2024-01-16T21:56:24;46.75;;;40.65;;
36303;SDS011;22335;49.800;8.596;2024-01-16T22:03:08;42.83;;;38.33;;
36303;SDS011;22335;49.800;8.596;2024-01-16T22:09:53;41.10;;;36.60;;
36303;SDS011;22335;49.800;8.596;2024-01-16T22:16:38;40.45;;;36.17;;
36303;SDS011;22335;49.800;8.596;2024-01-16T22:23:22;41.45;;;36.38;;
36303;SDS011;22335;49.800;8.596;2024-01-16T22:30:06;43.47;;;38.22;;
36303;SDS011;22335;49.800;8.596;2024-01-16T22:36:54;52.38;;;39.65;;
36303;SDS011;22335;49.800;8.596;2024-01-16T22:43:39;65.05;;;45.33;;
36303;SDS011;22335;49.800;8.596;2024-01-16T22:50:22;65.35;;;45.03;;
36303;SDS011;22335;49.800;8.596;2024-01-16T22:57:07;49.55;;;39.60;;
36303;SDS011;22335;49.800;8.596;2024-01-16T23:03:51;43.20;;;36.65;;
36303;SDS011;22335;49.800;8.596;2024-01-16T23:10:37;41.05;;;36.60;;
36303;SDS011;22335;49.800;8.596;2024-01-16T23:17:22;40.65;;;35.92;;
36303;SDS011;22335;49.800;8.596;2024-01-16T23:24:06;39.67;;;35.42;;
36303;SDS011;22335;49.800;8.596;2024-01-16T23:30:51;35.83;;;32.42;;
36303;SDS011;22335;49.800;8.596;2024-01-16T23:37:36;38.72;;;34.55;;
36303;SDS011;22335;49.800;8.596;2024-01-16T23:44:21;36.70;;;33.13;;
36303;SDS011;22335;49.800;8.596;2024-01-16T23:51:06;35.30;;;31.85;;
36303;SDS011;22335;49.800;8.596;2024-01-16T23:57:50;36.63;;;33.05;;
